Time,TemperatureF,DewpointF,PressureIn,WindDirection,WindDirectionDegrees,WindSpeedMPH,WindSpeedGustMPH,Humidity,HourlyPrecipIn,Conditions,Clouds,dailyrainin,SoftwareType,DateUTC
2013-03-28 00:02:00,35.0,32.0,30.12,East,82,7.0,13.0,89,0.00,,,0.10,,2013-03-28 00:02:00,
2013-03-28 00:11:00,35.0,32.0,30.12,East,82,7.0,13.0,89,0.00,,,0.10,,2013-03-28 00:11:00,
2013-03-28 00:22:00,35.0,32.0,30.12,East,82,7.0,13.0,89,0.00,,,0.10,,2013-03-28 00:22:00,
2013-03-28 00:31:00,35.0,32.0,30.12,East,82,7.0,13.0,89,0.00,,,0.10,,2013-03-28 00:31:00,
2013-03-28 00:42:00,35.0,32.0,30.12,East,82,7.0,13.0,89,0.00,,,0.10,,2013-03-28 00:42:00,
2013-03-28 01:02:00,34.0,33.0,30.09,ESE,103,5.0,13.0,95,0.00,,,0.10,,2013-03-28 01:02:00,
2013-03-28 01:12:00,34.0,33.0,30.09,ESE,103,5.0,13.0,95,0.00,,,0.10,,2013-03-28 01:12:00,
2013-03-28 01:22:00,34.0,33.0,30.09,East,81,7.0,16.0,95,0.00,,,0.10,,2013-03-28 01:22:00,
2013-03-28 01:32:00,34.0,33.0,30.09,East,81,7.0,16.0,95,0.00,,,0.10,,2013-03-28 01:32:00,
2013-03-28 01:42:00,34.0,33.0,30.09,East,81,7.0,16.0,95,0.00,,,0.10,,2013-03-28 01:42:00,
2013-03-28 01:52:00,35.0,34.0,30.09,ENE,68,5.0,13.0,95,0.00,,,0.10,,2013-03-28 01:52:00,
2013-03-28 02:02:00,35.0,34.0,30.06,East,84,5.0,8.0,96,0.00,,,0.10,,2013-03-28 02:02:00,
2013-03-28 02:12:00,35.0,34.0,30.06,East,84,5.0,8.0,96,0.00,,,0.10,,2013-03-28 02:12:00,
2013-03-28 02:22:00,35.0,34.0,30.06,ENE,69,3.0,8.0,97,0.00,,,0.10,,2013-03-28 02:22:00,
2013-03-28 02:32:00,35.0,34.0,30.06,ENE,69,5.0,8.0,96,0.00,,,0.10,,2013-03-28 02:32:00,
2013-03-28 02:42:00,35.0,34.0,30.06,ENE,69,5.0,8.0,96,0.00,,,0.10,,2013-03-28 02:42:00,
2013-03-28 02:52:00,35.0,34.0,30.06,ENE,69,5.0,8.0,96,0.00,,,0.10,,2013-03-28 02:52:00,
2013-03-28 03:02:00,35.0,33.0,30.06,East,79,6.0,16.0,94,0.01,,,0.11,,2013-03-28 03:02:00,
2013-03-28 03:11:00,35.0,33.0,30.06,East,79,6.0,16.0,94,0.01,,,0.11,,2013-03-28 03:11:00,
2013-03-28 03:22:00,35.0,33.0,30.06,East,90,8.0,16.0,93,0.01,,,0.11,,2013-03-28 03:22:00,
2013-03-28 03:32:00,35.0,33.0,30.06,East,95,9.0,21.0,93,0.02,,,0.12,,2013-03-28 03:32:00,
2013-03-28 03:42:00,35.0,33.0,30.06,East,95,9.0,21.0,93,0.02,,,0.12,,2013-03-28 03:42:00,
2013-03-28 03:52:00,34.0,33.0,30.06,NE,55,4.0,13.0,95,0.01,,,0.12,,2013-03-28 03:52:00,
2013-03-28 04:02:00,34.0,33.0,30.03,ENE,61,4.0,8.0,95,0.01,,,0.12,,2013-03-28 04:02:00,
2013-03-28 04:12:00,34.0,33.0,30.03,ENE,61,4.0,8.0,95,0.01,,,0.12,,2013-03-28 04:12:00,
2013-03-28 04:22:00,34.0,33.0,30.03,ENE,62,4.0,8.0,96,0.01,,,0.12,,2013-03-28 04:22:00,
2013-03-28 04:32:00,35.0,34.0,30.03,East,95,6.0,13.0,96,0.00,,,0.12,,2013-03-28 04:32:00,
2013-03-28 04:42:00,35.0,34.0,30.03,East,95,6.0,13.0,96,0.00,,,0.12,,2013-03-28 04:42:00,
2013-03-28 04:52:00,35.0,34.0,30.03,ENE,75,5.0,13.0,96,0.00,,,0.12,,2013-03-28 04:52:00,
2013-03-28 05:02:00,35.0,33.0,30.03,ENE,73,7.0,13.0,93,0.00,,,0.12,,2013-03-28 05:02:00,
2013-03-28 05:12:00,35.0,33.0,30.03,ENE,73,7.0,13.0,93,0.00,,,0.12,,2013-03-28 05:12:00,
2013-03-28 05:22:00,35.0,33.0,30.03,East,83,4.0,12.0,93,0.00,,,0.12,,2013-03-28 05:22:00,
2013-03-28 05:31:00,35.0,33.0,30.03,East,83,2.0,8.0,93,0.00,,,0.12,,2013-03-28 05:31:00,
2013-03-28 05:42:00,35.0,33.0,30.03,East,83,2.0,8.0,93,0.00,,,0.12,,2013-03-28 05:42:00,
2013-03-28 05:52:00,35.0,33.0,30.03,East,82,6.0,12.0,93,0.01,,,0.13,,2013-03-28 05:52:00,
2013-03-28 06:01:00,35.0,33.0,30.03,NE,38,2.0,8.0,91,0.01,,,0.13,,2013-03-28 06:01:00,
2013-03-28 06:12:00,35.0,33.0,30.03,NE,38,2.0,8.0,91,0.01,,,0.13,,2013-03-28 06:12:00,
2013-03-28 06:22:00,35.0,33.0,30.03,NE,40,2.0,8.0,91,0.01,,,0.13,,2013-03-28 06:22:00,
2013-03-28 06:32:00,35.0,33.0,30.03,ENE,77,5.0,8.0,92,0.01,,,0.13,,2013-03-28 06:32:00,
2013-03-28 06:42:00,35.0,33.0,30.03,ENE,77,5.0,8.0,92,0.01,,,0.13,,2013-03-28 06:42:00,
2013-03-28 06:52:00,34.0,32.0,30.06,ENE,65,5.0,8.0,93,0.00,,,0.13,,2013-03-28 06:52:00,
2013-03-28 07:02:00,34.0,32.0,30.09,ENE,76,4.0,8.0,94,0.00,,,0.13,,2013-03-28 07:02:00,
2013-03-28 07:12:00,34.0,32.0,30.09,ENE,76,4.0,8.0,94,0.00,,,0.13,,2013-03-28 07:12:00,
2013-03-28 07:22:00,34.0,32.0,30.09,ENE,75,2.0,8.0,94,0.00,,,0.13,,2013-03-28 07:22:00,
2013-03-28 07:32:00,35.0,33.0,30.09,East,100,3.0,8.0,93,0.00,,,0.13,,2013-03-28 07:32:00,
2013-03-28 07:42:00,35.0,33.0,30.09,East,100,3.0,8.0,93,0.00,,,0.13,,2013-03-28 07:42:00,
2013-03-28 07:51:00,35.0,32.0,30.09,East,95,2.0,8.0,89,0.01,,,0.14,,2013-03-28 07:51:00,
2013-03-28 08:02:00,35.0,32.0,30.09,East,95,2.0,8.0,89,0.01,,,0.14,,2013-03-28 08:02:00,
2013-03-28 08:11:00,35.0,32.0,30.09,East,95,2.0,8.0,89,0.01,,,0.14,,2013-03-28 08:11:00,
2013-03-28 08:21:00,35.0,32.0,30.12,ESE,115,3.0,8.0,87,0.01,,,0.14,,2013-03-28 08:21:00,
2013-03-28 08:32:00,35.0,31.0,30.12,East,99,5.0,8.0,84,0.01,,,0.14,,2013-03-28 08:32:00,
2013-03-28 08:42:00,35.0,31.0,30.12,East,99,5.0,8.0,84,0.01,,,0.14,,2013-03-28 08:42:00,
2013-03-28 08:52:00,36.0,30.0,30.15,East,99,6.0,12.0,80,0.01,,,0.15,,2013-03-28 08:52:00,
2013-03-28 09:01:00,37.0,31.0,30.12,East,96,6.0,13.0,80,0.01,,,0.15,,2013-03-28 09:01:00,
2013-03-28 09:11:00,37.0,31.0,30.12,East,96,6.0,13.0,80,0.01,,,0.15,,2013-03-28 09:11:00,
2013-03-28 09:22:00,37.0,31.0,30.12,ESE,118,5.0,13.0,79,0.01,,,0.15,,2013-03-28 09:22:00,
2013-03-28 09:32:00,37.0,31.0,30.12,ENE,76,3.0,13.0,78,0.01,,,0.15,,2013-03-28 09:32:00,
2013-03-28 09:42:00,37.0,31.0,30.12,ENE,76,3.0,13.0,78,0.01,,,0.15,,2013-03-28 09:42:00,
2013-03-28 09:52:00,38.0,30.0,30.12,SE,126,2.0,8.0,72,0.00,,,0.15,,2013-03-28 09:52:00,
2013-03-28 10:02:00,38.0,29.0,30.09,ESE,119,3.0,8.0,69,0.00,,,0.15,,2013-03-28 10:02:00,
2013-03-28 10:12:00,38.0,29.0,30.09,ESE,119,3.0,8.0,69,0.00,,,0.15,,2013-03-28 10:12:00,
2013-03-28 10:22:00,38.0,29.0,30.09,ESE,119,3.0,8.0,69,0.00,,,0.15,,2013-03-28 10:22:00,
2013-03-28 10:32:00,39.0,30.0,30.09,ESE,108,5.0,13.0,69,0.00,,,0.10,,2013-03-28 10:32:00,
2013-03-28 10:42:00,39.0,30.0,30.09,ESE,108,5.0,13.0,69,0.00,,,0.10,,2013-03-28 10:42:00,
2013-03-28 10:53:00,41.0,31.0,30.12,ESE,106,4.0,8.0,67,0.00,,,0.08,,2013-03-28 10:53:00,
2013-03-28 11:02:00,41.0,29.0,30.12,East,95,7.0,13.0,63,0.00,,,0.07,,2013-03-28 11:02:00,
2013-03-28 11:12:00,41.0,29.0,30.12,East,95,7.0,13.0,63,0.00,,,0.07,,2013-03-28 11:12:00,
2013-03-28 11:22:00,41.0,29.0,30.12,ESE,103,3.0,12.0,62,0.00,,,0.07,,2013-03-28 11:22:00,
2013-03-28 11:32:00,41.0,28.0,30.15,East,80,6.0,13.0,59,0.00,,,0.07,,2013-03-28 11:32:00,
2013-03-28 11:42:00,41.0,28.0,30.15,East,80,6.0,13.0,59,0.00,,,0.07,,2013-03-28 11:42:00,
2013-03-28 11:52:00,42.0,28.0,30.12,East,93,5.0,12.0,58,0.00,,,0.07,,2013-03-28 11:52:00,
2013-03-28 12:02:00,42.0,27.0,30.12,ESE,111,7.0,13.0,55,0.00,,,0.07,,2013-03-28 12:02:00,
2013-03-28 12:11:00,42.0,27.0,30.12,ESE,111,7.0,13.0,55,0.00,,,0.07,,2013-03-28 12:11:00,
2013-03-28 12:22:00,42.0,27.0,30.12,East,97,6.0,13.0,54,0.00,,,0.07,,2013-03-28 12:22:00,
2013-03-28 12:32:00,41.0,26.0,30.09,East,93,5.0,13.0,54,0.00,,,0.07,,2013-03-28 12:32:00,
2013-03-28 12:42:00,41.0,26.0,30.09,East,93,5.0,13.0,54,0.00,,,0.07,,2013-03-28 12:42:00,
2013-03-28 12:52:00,41.0,26.0,30.09,East,88,4.0,13.0,54,0.00,,,0.07,,2013-03-28 12:52:00,
2013-03-28 13:01:00,41.0,26.0,30.12,East,97,6.0,13.0,54,0.00,,,0.07,,2013-03-28 13:01:00,
2013-03-28 13:11:00,41.0,26.0,30.12,East,97,6.0,13.0,54,0.00,,,0.07,,2013-03-28 13:11:00,
2013-03-28 13:21:00,41.0,26.0,30.12,East,97,6.0,13.0,54,0.00,,,0.07,,2013-03-28 13:21:00,
2013-03-28 13:32:00,41.0,26.0,30.12,East,90,6.0,8.0,54,0.00,,,0.07,,2013-03-28 13:32:00,
2013-03-28 13:41:00,41.0,26.0,30.12,East,90,6.0,8.0,54,0.00,,,0.07,,2013-03-28 13:41:00,
2013-03-28 13:52:00,42.0,26.0,30.12,ENE,78,6.0,8.0,53,0.00,,,0.07,,2013-03-28 13:52:00,
2013-03-28 14:02:00,41.0,25.0,30.09,East,92,6.0,8.0,53,0.00,,,0.07,,2013-03-28 14:02:00,
2013-03-28 14:11:00,41.0,25.0,30.09,East,92,6.0,8.0,53,0.00,,,0.07,,2013-03-28 14:11:00,
2013-03-28 14:22:00,42.0,27.0,30.09,East,97,6.0,13.0,54,0.00,,,0.07,,2013-03-28 14:22:00,
2013-03-28 14:32:00,42.0,25.0,30.09,East,90,8.0,13.0,51,0.00,,,0.07,,2013-03-28 14:32:00,
2013-03-28 14:42:00,42.0,25.0,30.09,East,90,8.0,13.0,51,0.00,,,0.07,,2013-03-28 14:42:00,
2013-03-28 14:52:00,43.0,26.0,30.09,East,84,9.0,16.0,51,0.00,,,0.06,,2013-03-28 14:52:00,
2013-03-28 15:01:00,43.0,26.0,30.06,East,83,7.0,13.0,50,0.00,,,0.05,,2013-03-28 15:01:00,
2013-03-28 15:11:00,43.0,26.0,30.06,East,83,7.0,13.0,50,0.00,,,0.05,,2013-03-28 15:11:00,
2013-03-28 15:21:00,42.0,25.0,30.09,East,80,6.0,16.0,51,0.00,,,0.05,,2013-03-28 15:21:00,
2013-03-28 15:32:00,42.0,25.0,30.09,East,80,6.0,16.0,51,0.00,,,0.05,,2013-03-28 15:32:00,
2013-03-28 15:42:00,42.0,25.0,30.09,East,80,6.0,16.0,51,0.00,,,0.05,,2013-03-28 15:42:00,
2013-03-28 15:53:00,42.0,25.0,30.09,ENE,71,7.0,13.0,50,0.00,,,0.05,,2013-03-28 15:53:00,
2013-03-28 16:02:00,42.0,24.0,30.09,ENE,75,8.0,16.0,48,0.00,,,0.05,,2013-03-28 16:02:00,
2013-03-28 16:12:00,42.0,24.0,30.09,ENE,75,8.0,16.0,48,0.00,,,0.05,,2013-03-28 16:12:00,
2013-03-28 16:22:00,42.0,23.0,30.06,ENE,72,9.0,16.0,47,0.00,,,0.05,,2013-03-28 16:22:00,
2013-03-28 16:32:00,41.0,23.0,30.06,ENE,69,7.0,16.0,48,0.00,,,0.05,,2013-03-28 16:32:00,
2013-03-28 16:41:00,41.0,23.0,30.06,ENE,69,7.0,16.0,48,0.00,,,0.05,,2013-03-28 16:41:00,
2013-03-28 16:52:00,41.0,24.0,30.06,ENE,76,8.0,16.0,50,0.00,,,0.05,,2013-03-28 16:52:00,
2013-03-28 17:02:00,40.0,23.0,30.06,East,81,6.0,13.0,51,0.00,,,0.05,,2013-03-28 17:02:00,
2013-03-28 17:12:00,40.0,23.0,30.06,East,81,6.0,13.0,51,0.00,,,0.05,,2013-03-28 17:12:00,
2013-03-28 17:22:00,40.0,24.0,30.09,ENE,77,6.0,13.0,52,0.00,,,0.05,,2013-03-28 17:22:00,
2013-03-28 17:32:00,40.0,24.0,30.09,ENE,64,8.0,13.0,53,0.00,,,0.05,,2013-03-28 17:32:00,
2013-03-28 17:42:00,40.0,24.0,30.09,ENE,64,8.0,13.0,53,0.00,,,0.05,,2013-03-28 17:42:00,
2013-03-28 17:52:00,39.0,24.0,30.09,ENE,71,7.0,13.0,54,0.00,,,0.05,,2013-03-28 17:52:00,
2013-03-28 18:02:00,39.0,24.0,30.09,East,84,6.0,13.0,55,0.00,,,0.05,,2013-03-28 18:02:00,
2013-03-28 18:12:00,39.0,24.0,30.09,East,84,6.0,13.0,55,0.00,,,0.05,,2013-03-28 18:12:00,
2013-03-28 18:22:00,39.0,25.0,30.09,NE,55,7.0,12.0,56,0.00,,,0.05,,2013-03-28 18:22:00,
2013-03-28 18:31:00,38.0,24.0,30.09,East,89,5.0,13.0,57,0.00,,,0.05,,2013-03-28 18:31:00,
2013-03-28 18:42:00,38.0,24.0,30.09,East,89,5.0,13.0,57,0.00,,,0.05,,2013-03-28 18:42:00,
2013-03-28 18:52:00,38.0,25.0,30.09,East,86,6.0,13.0,58,0.00,,,0.05,,2013-03-28 18:52:00,
2013-03-28 19:02:00,38.0,25.0,30.09,East,86,6.0,13.0,58,0.00,,,0.05,,2013-03-28 19:02:00,
2013-03-28 19:11:00,38.0,25.0,30.09,East,86,6.0,13.0,58,0.00,,,0.05,,2013-03-28 19:11:00,
2013-03-28 19:22:00,38.0,25.0,30.06,NE,52,3.0,8.0,60,0.00,,,0.05,,2013-03-28 19:22:00,
2013-03-28 19:32:00,37.0,25.0,30.09,ENE,78,3.0,8.0,62,0.00,,,0.05,,2013-03-28 19:32:00,
2013-03-28 19:42:00,37.0,25.0,30.09,ENE,78,3.0,8.0,62,0.00,,,0.05,,2013-03-28 19:42:00,
2013-03-28 19:52:00,37.0,26.0,30.06,NE,53,2.0,5.0,64,0.00,,,0.05,,2013-03-28 19:52:00,
2013-03-28 20:02:00,36.0,25.0,30.06,ENE,67,2.0,5.0,64,0.00,,,0.05,,2013-03-28 20:02:00,
2013-03-28 20:11:00,36.0,25.0,30.06,ENE,67,2.0,5.0,64,0.00,,,0.05,,2013-03-28 20:11:00,
2013-03-28 20:22:00,36.0,26.0,30.09,NE,54,2.0,8.0,66,0.00,,,0.05,,2013-03-28 20:22:00,
2013-03-28 20:32:00,36.0,26.0,30.09,NE,56,4.0,8.0,68,0.00,,,0.05,,2013-03-28 20:32:00,
2013-03-28 20:42:00,36.0,26.0,30.09,NE,56,4.0,8.0,68,0.00,,,0.05,,2013-03-28 20:42:00,
2013-03-28 20:53:00,36.0,28.0,30.06,ENE,72,5.0,8.0,71,0.00,,,0.05,,2013-03-28 20:53:00,
2013-03-28 21:02:00,36.0,28.0,30.09,ENE,76,4.0,8.0,73,0.00,,,0.05,,2013-03-28 21:02:00,
2013-03-28 21:11:00,36.0,28.0,30.09,ENE,76,4.0,8.0,73,0.00,,,0.05,,2013-03-28 21:11:00,
2013-03-28 21:22:00,36.0,28.0,30.09,ENE,76,4.0,8.0,73,0.00,,,0.05,,2013-03-28 21:22:00,
2013-03-28 21:32:00,37.0,29.0,30.09,ENE,69,6.0,12.0,74,0.00,,,0.05,,2013-03-28 21:32:00,
2013-03-28 21:42:00,37.0,29.0,30.09,ENE,69,6.0,12.0,74,0.00,,,0.05,,2013-03-28 21:42:00,
2013-03-28 21:53:00,37.0,29.0,30.06,ENE,69,1.0,8.0,73,0.00,,,0.05,,2013-03-28 21:53:00,
2013-03-28 22:02:00,37.0,29.0,30.06,NE,52,2.0,8.0,73,0.00,,,0.05,,2013-03-28 22:02:00,
2013-03-28 22:12:00,37.0,29.0,30.06,NE,52,2.0,8.0,73,0.00,,,0.05,,2013-03-28 22:12:00,
2013-03-28 22:22:00,37.0,30.0,30.09,East,89,5.0,12.0,75,0.00,,,0.05,,2013-03-28 22:22:00,
2013-03-28 22:32:00,37.0,29.0,30.06,ENE,67,2.0,8.0,74,0.00,,,0.05,,2013-03-28 22:32:00,
2013-03-28 22:42:00,37.0,29.0,30.06,ENE,67,2.0,8.0,74,0.00,,,0.05,,2013-03-28 22:42:00,
2013-03-28 22:52:00,37.0,29.0,30.06,ENE,58,2.0,5.0,74,0.00,,,0.05,,2013-03-28 22:52:00,
2013-03-28 23:01:00,37.0,29.0,30.06,ENE,58,2.0,5.0,74,0.00,,,0.05,,2013-03-28 23:01:00,
2013-03-28 23:12:00,37.0,29.0,30.06,ENE,58,2.0,5.0,74,0.00,,,0.05,,2013-03-28 23:12:00,
2013-03-28 23:21:00,37.0,29.0,30.06,ENE,58,2.0,5.0,74,0.00,,,0.05,,2013-03-28 23:21:00,
2013-03-28 23:32:00,35.0,29.0,30.06,NE,48,2.0,8.0,77,0.00,,,0.05,,2013-03-28 23:32:00,
2013-03-28 23:42:00,35.0,29.0,30.06,NE,48,2.0,8.0,77,0.00,,,0.05,,2013-03-28 23:42:00,
2013-03-28 23:52:00,35.0,29.0,30.06,ENE,69,2.0,8.0,78,0.00,,,0.05,,2013-03-28 23:52:00,